Time;durP1;ratioP1;P1;durP2;ratioP2;P2;SDS_P1;SDS_P2;PMS_P1;PMS_P2;Temp;Humidity;BMP_temperature;BMP_pressure;BME280_temperature;BME280_humidity;BME280_pressure;Samples;Min_cycle;Max_cycle;Signal;HPM_P1;HPM_P2
2022/01/06 00:00:16;;;;;;;14.95;5.07;;;;;;;2.77;100.00;100623.56;837816;23;1244;-87
2022/01/06 00:00:40;;;;;;;13.60;5.20;;;;;;;2.72;100.00;100621.75;843496;23;1548;-87
2022/01/06 00:01:11;;;;;;;11.65;4.40;;;;;;;2.72;100.00;100629.47;839325;23;998;-87
2022/01/06 00:01:31;;;;;;;12.20;4.53;;;;;;;2.75;100.00;100645.91;836650;23;4703;-87
2022/01/06 00:01:53;;;;;;;13.73;4.80;;;;;;;2.77;100.00;100626.16;826134;23;1130;-87
2022/01/06 00:02:13;;;;;;;13.55;5.25;;;;;;;2.72;100.00;100619.16;830564;23;1061;-87
2022/01/06 00:02:37;;;;;;;12.32;4.82;;;;;;;2.79;100.00;100629.66;837909;23;1219;-87
2022/01/06 00:02:58;;;;;;;12.82;4.65;;;;;;;2.80;100.00;100626.25;838300;23;1397;-87
2022/01/06 00:03:21;;;;;;;11.10;4.60;;;;;;;2.78;100.00;100652.00;843597;23;875;-87
2022/01/06 00:03:49;;;;;;;12.85;5.05;;;;;;;2.85;100.00;100645.31;839515;23;911;-87
2022/01/06 00:04:09;;;;;;;12.68;4.38;;;;;;;2.86;100.00;100657.38;832282;23;4220;-87
2022/01/06 00:04:30;;;;;;;13.73;4.50;;;;;;;2.83;100.00;100652.16;837501;23;1292;-87
2022/01/06 00:04:51;;;;;;;13.55;4.75;;;;;;;2.78;100.00;100648.56;834474;23;1307;-87
2022/01/06 00:05:14;;;;;;;16.17;4.93;;;;;;;2.76;100.00;100643.34;844505;23;1285;-88
2022/01/06 00:05:35;;;;;;;12.98;4.60;;;;;;;2.84;100.00;100656.50;842911;23;1882;-87
2022/01/06 00:05:56;;;;;;;11.85;4.53;;;;;;;2.89;100.00;100639.38;838216;23;1311;-87
2022/01/06 00:06:16;;;;;;;11.15;4.60;;;;;;;2.85;100.00;100645.31;829941;23;1212;-87
2022/01/06 00:06:42;;;;;;;11.35;4.72;;;;;;;2.86;100.00;100657.38;829460;23;1312;-87
2022/01/06 00:07:02;;;;;;;12.00;4.50;;;;;;;2.84;100.00;100653.91;833100;23;1421;-88
2022/01/06 00:07:23;;;;;;;13.13;4.65;;;;;;;2.83;100.00;100629.78;828539;23;4405;-87
2022/01/06 00:07:44;;;;;;;13.15;5.15;;;;;;;2.82;100.00;100658.13;837763;23;1185;-87
2022/01/06 00:08:04;;;;;;;15.18;4.95;;;;;;;2.78;100.00;100639.09;837547;23;1101;-87
2022/01/06 00:08:25;;;;;;;12.83;4.37;;;;;;;2.76;100.00;100658.00;829818;23;1269;-87
2022/01/06 00:08:45;;;;;;;12.40;4.38;;;;;;;2.75;100.00;100638.16;829193;23;1177;-87
2022/01/06 00:09:08;;;;;;;13.23;4.77;;;;;;;2.80;100.00;100636.59;832961;23;884;-87
2022/01/06 00:09:31;;;;;;;12.35;4.50;;;;;;;2.72;100.00;100657.00;833202;23;1306;-87
2022/01/06 00:09:52;;;;;;;12.73;4.30;;;;;;;2.73;100.00;100620.91;837405;23;1279;-87
2022/01/06 00:10:16;;;;;;;12.57;4.35;;;;;;;2.76;100.00;100655.41;832845;23;4307;-87
2022/01/06 00:10:41;;;;;;;13.93;4.70;;;;;;;2.75;100.00;100649.34;830072;23;928;-87
2022/01/06 00:11:05;;;;;;;11.30;4.32;;;;;;;2.76;100.00;100632.16;832087;23;801;-87
2022/01/06 00:11:25;;;;;;;10.20;4.00;;;;;;;2.78;100.00;100626.19;829395;23;1289;-87
2022/01/06 00:11:46;;;;;;;11.82;4.20;;;;;;;2.80;100.00;100646.91;838400;23;1321;-87
2022/01/06 00:12:10;;;;;;;12.07;4.83;;;;;;;2.80;100.00;100626.25;838118;23;1351;-87
2022/01/06 00:13:08;;;;;;;12.50;4.97;;;;;;;2.78;100.00;100625.31;833950;23;1455;-87
2022/01/06 00:13:32;;;;;;;14.00;4.47;;;;;;;2.84;100.00;100623.78;833224;23;4247;-87
2022/01/06 00:14:40;;;;;;;15.02;4.72;;;;;;;2.79;100.00;100640.00;837696;23;1208;-87
2022/01/06 00:15:10;;;;;;;12.20;4.68;;;;;;;2.73;100.00;100628.66;833863;23;1298;-87
2022/01/06 00:16:07;;;;;;;13.48;4.50;;;;;;;2.68;100.00;100652.59;840504;23;888;-87
2022/01/06 00:18:39;;;;;;;14.83;4.30;;;;;;;2.66;100.00;100649.97;840321;23;1143;-87
2022/01/06 00:23:38;;;;;;;14.13;4.50;;;;;;;2.59;100.00;100642.03;841054;23;1469;-87
2022/01/06 00:24:04;;;;;;;15.60;4.68;;;;;;;2.65;100.00;100681.78;840774;23;1387;-87
2022/01/06 00:24:27;;;;;;;14.60;4.55;;;;;;;2.66;100.00;100639.66;838243;23;820;-87
2022/01/06 00:24:50;;;;;;;13.90;4.50;;;;;;;2.64;100.00;100674.88;838079;23;1451;-87
2022/01/06 00:25:17;;;;;;;15.35;4.65;;;;;;;2.62;100.00;100662.78;835587;23;4207;-87
2022/01/06 00:25:37;;;;;;;13.98;4.53;;;;;;;2.59;100.00;100658.41;840295;23;1897;-87
2022/01/06 00:25:59;;;;;;;12.02;3.88;;;;;;;2.59;100.00;100698.78;833144;23;1295;-87
2022/01/06 00:26:20;;;;;;;16.05;4.78;;;;;;;2.54;100.00;100668.56;830100;23;1205;-88
2022/01/06 00:26:41;;;;;;;12.45;4.35;;;;;;;2.56;100.00;100650.53;834039;23;1157;-87
2022/01/06 00:27:04;;;;;;;12.55;4.35;;;;;;;2.54;100.00;100662.56;833926;23;1387;-87
2022/01/06 00:27:25;;;;;;;12.98;4.13;;;;;;;2.57;100.00;100675.53;838318;23;1107;-87
2022/01/06 00:27:46;;;;;;;12.27;4.28;;;;;;;2.66;100.00;100686.13;836422;23;1156;-87
2022/01/06 00:28:06;;;;;;;12.80;4.25;;;;;;;2.63;100.00;100696.38;835292;23;4234;-87
2022/01/06 00:28:29;;;;;;;14.50;4.37;;;;;;;2.65;100.00;100653.38;836453;23;1244;-87
2022/01/06 00:28:50;;;;;;;12.70;4.30;;;;;;;2.66;100.00;100670.63;833510;23;1177;-87
2022/01/06 00:29:11;;;;;;;12.03;4.50;;;;;;;2.65;100.00;100648.22;841603;23;1224;-87
2022/01/06 00:29:34;;;;;;;15.57;4.38;;;;;;;2.61;100.00;100664.47;846008;23;1091;-88
2022/01/06 00:29:54;;;;;;;14.60;4.60;;;;;;;2.61;100.00;100651.56;845501;23;1211;-87
2022/01/06 00:30:15;;;;;;;13.57;4.30;;;;;;;2.59;100.00;100658.41;837624;23;1298;-87
2022/01/06 00:30:39;;;;;;;15.10;4.32;;;;;;;2.60;100.00;100654.97;830533;23;912;-87
2022/01/06 00:31:00;;;;;;;15.18;4.50;;;;;;;2.55;100.00;100651.41;829599;23;1283;-87
2022/01/06 00:31:25;;;;;;;16.65;4.38;;;;;;;2.68;100.00;100666.38;834178;23;4689;-87
2022/01/06 00:31:47;;;;;;;14.17;4.23;;;;;;;2.66;100.00;100657.72;837497;23;1264;-87
2022/01/06 00:32:08;;;;;;;12.75;4.20;;;;;;;2.66;100.00;100644.81;833788;23;1320;-87
2022/01/06 00:32:35;;;;;;;13.00;3.83;;;;;;;2.64;100.00;100661.09;834710;23;900;-87
2022/01/06 00:32:55;;;;;;;12.95;4.07;;;;;;;2.66;100.00;100651.66;833597;23;998;-87
2022/01/06 00:33:17;;;;;;;13.85;4.38;;;;;;;2.61;100.00;100671.34;833364;23;1327;-87
2022/01/06 00:33:37;;;;;;;16.70;4.75;;;;;;;2.59;100.00;100663.56;837601;23;1295;-87
2022/01/06 00:33:57;;;;;;;13.93;4.50;;;;;;;2.60;100.00;100669.59;842035;23;1295;-87
2022/01/06 00:34:18;;;;;;;12.75;4.22;;;;;;;2.57;100.00;100691.03;828941;23;4241;-87
2022/01/06 00:34:41;;;;;;;14.13;4.50;;;;;;;2.59;100.00;100663.56;833178;23;1174;-87
2022/01/06 00:35:02;;;;;;;14.98;4.38;;;;;;;2.59;100.00;100668.72;826081;23;1397;-87
2022/01/06 00:35:23;;;;;;;12.68;3.80;;;;;;;2.61;100.00;100699.72;826993;23;940;-87
2022/01/06 00:35:43;;;;;;;13.15;3.75;;;;;;;2.61;100.00;100679.94;830033;23;1257;-87
2022/01/06 00:36:05;;;;;;;12.23;3.80;;;;;;;2.60;100.00;100675.59;829703;23;1380;-88
2022/01/06 00:37:11;;;;;;;14.45;4.20;;;;;;;2.63;100.00;100670.56;832424;23;4326;-87
2022/01/06 00:37:32;;;;;;;14.88;4.07;;;;;;;2.65;100.00;100694.69;837336;23;824;-87
2022/01/06 00:37:52;;;;;;;11.93;3.90;;;;;;;2.67;100.00;100656.00;841500;23;820;-87
2022/01/06 00:38:23;;;;;;;14.20;3.92;;;;;;;2.65;100.00;100689.53;839698;23;1288;-87
2022/01/06 00:38:43;;;;;;;13.82;3.95;;;;;;;2.63;100.00;100656.75;841772;23;788;-87
2022/01/06 00:39:07;;;;;;;13.63;3.97;;;;;;;2.64;100.00;100667.13;843646;23;931;-87
2022/01/06 00:39:35;;;;;;;14.68;3.60;;;;;;;2.63;100.00;100665.41;833355;23;1262;-87
2022/01/06 00:39:56;;;;;;;15.73;4.13;;;;;;;2.63;100.00;100660.22;833656;23;1394;-87
2022/01/06 00:40:22;;;;;;;13.43;4.18;;;;;;;2.63;100.00;100669.66;832740;23;4164;-87
2022/01/06 00:40:43;;;;;;;12.35;3.95;;;;;;;2.64;100.00;100676.59;833299;23;1398;-87
2022/01/06 00:41:03;;;;;;;14.53;4.33;;;;;;;2.64;100.00;100664.53;833585;23;1154;-87
2022/01/06 00:41:26;;;;;;;14.00;4.15;;;;;;;2.62;100.00;100655.91;829991;23;1273;-87
2022/01/06 00:41:48;;;;;;;13.30;4.00;;;;;;;2.62;100.00;100655.91;832484;23;935;-87
2022/01/06 00:42:16;;;;;;;12.63;3.80;;;;;;;2.60;100.00;100677.31;835805;23;887;-87
2022/01/06 00:42:39;;;;;;;13.90;4.20;;;;;;;2.60;100.00;100691.09;837616;23;1453;-87
2022/01/06 00:42:59;;;;;;;12.93;4.10;;;;;;;2.60;100.00;100667.00;830001;23;1306;-86
2022/01/06 00:43:20;;;;;;;12.93;3.63;;;;;;;2.69;100.00;100655.22;829115;23;4209;-87
2022/01/06 00:43:41;;;;;;;12.98;3.60;;;;;;;2.80;100.00;100667.56;830177;23;836;-87
2022/01/06 00:44:05;;;;;;;13.83;4.13;;;;;;;2.86;100.00;100681.50;829276;23;1194;-87
2022/01/06 00:44:26;;;;;;;13.02;4.00;;;;;;;2.83;100.00;100675.38;831296;23;828;-87
2022/01/06 00:44:52;;;;;;;12.93;4.07;;;;;;;2.80;100.00;100652.06;829278;23;1237;-87
2022/01/06 00:45:12;;;;;;;17.13;4.13;;;;;;;2.76;100.00;100651.09;831845;23;1275;-87
2022/01/06 00:45:36;;;;;;;19.40;4.30;;;;;;;2.74;100.00;100678.56;834586;23;919;-87
2022/01/06 00:45:56;;;;;;;11.68;3.92;;;;;;;2.72;100.00;100690.56;834995;23;923;-86
2022/01/06 00:46:20;;;;;;;12.97;3.87;;;;;;;2.70;100.00;100659.56;833118;23;4346;-87
2022/01/06 00:46:40;;;;;;;14.80;3.90;;;;;;;2.67;100.00;100662.06;837290;23;1102;-87
2022/01/06 00:47:04;;;;;;;15.05;3.70;;;;;;;2.62;100.00;100663.63;834931;23;1208;-87
2022/01/06 00:47:24;;;;;;;12.65;3.63;;;;;;;2.63;100.00;100674.81;833352;23;1361;-87
2022/01/06 00:47:45;;;;;;;12.50;3.88;;;;;;;2.61;100.00;100661.88;837927;23;1175;-86
2022/01/06 00:48:09;;;;;;;13.60;4.10;;;;;;;2.60;100.00;100688.50;837523;23;1315;-86
2022/01/06 00:48:29;;;;;;;14.80;3.83;;;;;;;2.57;100.00;100705.63;837496;23;1264;-86
2022/01/06 00:48:50;;;;;;;15.80;3.88;;;;;;;2.56;100.00;100686.69;838124;23;1237;-86
2022/01/06 00:49:10;;;;;;;12.53;3.83;;;;;;;2.55;100.00;100683.22;831591;23;4269;-86
2022/01/06 00:49:31;;;;;;;14.45;3.95;;;;;;;2.56;100.00;100689.25;830602;23;1201;-86
2022/01/06 00:49:51;;;;;;;14.32;4.30;;;;;;;2.54;100.00;100675.44;833464;23;1250;-86
2022/01/06 00:50:14;;;;;;;14.07;3.97;;;;;;;2.57;100.00;100691.03;841991;23;1361;-85
2022/01/06 00:50:41;;;;;;;13.40;3.70;;;;;;;2.53;100.00;100702.97;838880;23;974;-86
2022/01/06 00:51:01;;;;;;;11.98;3.70;;;;;;;2.57;100.00;100710.81;840932;23;1292;-86
2022/01/06 00:51:24;;;;;;;11.83;4.00;;;;;;;2.57;100.00;100693.59;833250;23;1205;-86
2022/01/06 00:51:45;;;;;;;15.65;4.30;;;;;;;2.55;100.00;100706.47;833666;23;1385;-85
2022/01/06 00:52:05;;;;;;;15.77;4.50;;;;;;;2.54;100.00;100666.00;833360;23;4189;-85
2022/01/06 00:52:31;;;;;;;14.52;3.72;;;;;;;2.56;100.00;100686.69;834082;23;1334;-86
2022/01/06 00:52:54;;;;;;;13.52;3.75;;;;;;;2.57;100.00;100695.31;829330;23;1299;-86
2022/01/06 00:53:15;;;;;;;11.23;3.80;;;;;;;2.59;100.00;100676.47;831051;23;1014;-86
2022/01/06 00:53:35;;;;;;;12.33;3.73;;;;;;;2.58;100.00;100695.34;831122;23;1289;-86
2022/01/06 00:53:56;;;;;;;14.30;3.80;;;;;;;2.67;100.00;100666.34;833346;23;1287;-86
2022/01/06 00:54:19;;;;;;;12.40;3.70;;;;;;;2.74;100.00;100688.91;832843;23;1165;-87
2022/01/06 00:54:40;;;;;;;12.73;3.72;;;;;;;2.90;100.00;100674.72;839820;23;919;-85
2022/01/06 00:55:00;;;;;;;15.45;4.07;;;;;;;2.93;100.00;100718.69;837741;23;873;-86
2022/01/06 00:55:21;;;;;;;14.77;4.05;;;;;;;2.92;100.00;100680.78;832479;23;4194;-86
2022/01/06 00:55:42;;;;;;;13.03;4.00;;;;;;;2.88;100.00;100666.94;833474;23;1074;-86
2022/01/06 00:56:06;;;;;;;15.00;3.80;;;;;;;2.86;100.00;100683.22;829563;23;1256;-86
2022/01/06 00:56:31;;;;;;;13.15;3.50;;;;;;;2.82;100.00;100673.63;837238;23;1106;-86
2022/01/06 00:56:54;;;;;;;11.63;3.35;;;;;;;2.77;100.00;100667.47;839713;23;978;-88
2022/01/06 00:57:15;;;;;;;14.57;3.60;;;;;;;2.76;100.00;100694.13;842361;23;1104;-86
2022/01/06 00:57:42;;;;;;;16.15;3.88;;;;;;;2.75;100.00;100719.06;838102;23;1223;-86
2022/01/06 00:58:13;;;;;;;13.63;3.67;;;;;;;2.71;100.00;100671.66;829066;23;1356;-86
2022/01/06 00:58:33;;;;;;;15.23;3.58;;;;;;;2.68;100.00;100706.81;824409;23;4613;-86
2022/01/06 00:58:57;;;;;;;12.18;3.55;;;;;;;2.68;100.00;100705.09;830129;23;1432;-86
2022/01/06 00:59:17;;;;;;;11.43;3.80;;;;;;;2.66;100.00;100700.72;831425;23;866;-86
2022/01/06 00:59:40;;;;;;;13.70;3.80;;;;;;;2.65;100.00;100704.16;830076;23;1146;-86
2022/01/06 01:00:04;;;;;;;15.90;3.90;;;;;;;2.70;100.00;100700.88;838644;23;1192;-86
2022/01/06 01:00:37;;;;;;;14.45;3.78;;;;;;;2.67;100.00;100718.84;833138;23;1386;-86
2022/01/06 01:01:01;;;;;;;14.20;3.60;;;;;;;2.64;100.00;100700.69;830122;23;1134;-86
2022/01/06 01:01:21;;;;;;;15.15;3.60;;;;;;;2.62;100.00;100684.28;833280;23;4208;-86
2022/01/06 01:01:45;;;;;;;14.40;3.80;;;;;;;2.63;100.00;100696.38;834265;23;1240;-86
2022/01/06 01:02:05;;;;;;;15.40;4.40;;;;;;;2.76;100.00;100697.56;838099;23;1172;-86
2022/01/06 01:02:28;;;;;;;16.70;4.60;;;;;;;2.84;100.00;100683.16;838447;23;1336;-86
2022/01/06 01:02:49;;;;;;;14.98;4.40;;;;;;;2.81;100.00;100698.59;834157;23;1304;-86
2022/01/06 01:03:20;;;;;;;14.83;3.97;;;;;;;2.79;100.00;100686.47;833669;23;1074;-85
2022/01/06 01:03:41;;;;;;;13.02;3.83;;;;;;;2.77;100.00;100694.16;829709;23;1194;-86
2022/01/06 01:04:01;;;;;;;13.53;3.60;;;;;;;2.72;100.00;100688.84;825399;23;1190;-86
2022/01/06 01:04:22;;;;;;;15.98;3.92;;;;;;;2.69;100.00;100691.38;825309;23;4228;-86
2022/01/06 01:04:42;;;;;;;17.65;4.30;;;;;;;2.68;100.00;100699.94;825430;23;1301;-86
2022/01/06 01:05:04;;;;;;;12.93;3.90;;;;;;;2.66;100.00;100706.78;834701;23;1240;-85
2022/01/06 01:05:24;;;;;;;13.07;3.90;;;;;;;2.72;100.00;100691.44;829489;23;1202;-86
2022/01/06 01:05:47;;;;;;;16.90;4.00;;;;;;;2.73;100.00;100703.53;833877;23;1947;-86
2022/01/06 01:06:08;;;;;;;14.58;4.06;;;;;;;2.74;100.00;100701.81;834120;23;1332;-88
2022/01/06 01:06:29;;;;;;;13.33;3.80;;;;;;;2.72;100.00;100717.25;834007;23;1289;-86
2022/01/06 01:06:49;;;;;;;14.23;3.78;;;;;;;2.73;100.00;100694.91;837774;23;1167;-86
2022/01/06 01:07:13;;;;;;;14.80;4.00;;;;;;;2.71;100.00;100706.88;831672;23;4239;-86
2022/01/06 01:07:33;;;;;;;11.98;3.45;;;;;;;2.71;100.00;100676.81;837799;23;1231;-86
2022/01/06 01:07:53;;;;;;;13.07;3.85;;;;;;;2.71;100.00;100731.03;825660;23;1189;-86
2022/01/06 01:08:15;;;;;;;11.63;3.97;;;;;;;2.68;100.00;100683.56;833687;23;1173;-86
2022/01/06 01:08:38;;;;;;;12.77;3.83;;;;;;;2.64;100.00;100682.59;828527;23;1236;-86
2022/01/06 01:08:58;;;;;;;15.15;3.80;;;;;;;2.66;100.00;100711.03;831230;23;892;-86
2022/01/06 01:09:19;;;;;;;13.77;3.80;;;;;;;2.65;100.00;100709.31;834076;23;1241;-86
2022/01/06 01:09:39;;;;;;;12.95;3.75;;;;;;;2.63;100.00;100711.84;833449;23;1182;-86
2022/01/06 01:10:03;;;;;;;12.73;3.80;;;;;;;2.62;100.00;100698.91;833477;23;1248;-86
2022/01/06 01:10:28;;;;;;;12.38;3.97;;;;;;;2.64;100.00;100716.16;837312;23;4833;-86
2022/01/06 01:10:55;;;;;;;13.30;4.05;;;;;;;2.65;100.00;100710.19;833874;23;1318;-86
2022/01/06 01:11:15;;;;;;;11.52;3.95;;;;;;;2.67;100.00;100728.28;830360;23;1461;-86
2022/01/06 01:11:38;;;;;;;15.02;4.20;;;;;;;2.66;100.00;100714.53;832635;23;1578;-86
2022/01/06 01:12:03;;;;;;;15.65;4.10;;;;;;;2.63;100.00;100701.53;830238;23;1359;-86
2022/01/06 01:12:26;;;;;;;15.60;4.25;;;;;;;2.63;100.00;100717.00;831045;23;857;-86
2022/01/06 01:12:48;;;;;;;16.65;4.32;;;;;;;2.61;100.00;100703.19;839214;23;1294;-86
2022/01/06 01:13:11;;;;;;;13.35;4.13;;;;;;;2.63;100.00;100698.94;832965;23;4183;-86
2022/01/06 01:13:37;;;;;;;15.27;3.92;;;;;;;2.57;100.00;100698.75;837490;23;1157;-86
2022/01/06 01:14:07;;;;;;;13.50;3.85;;;;;;;2.59;100.00;100694.53;833256;23;1434;-86
2022/01/06 01:14:31;;;;;;;14.50;4.28;;;;;;;2.59;100.00;100701.38;838222;23;955;-86
2022/01/06 01:15:05;;;;;;;16.20;4.45;;;;;;;2.58;100.00;100687.63;839536;23;955;-86
2022/01/06 01:15:31;;;;;;;15.55;4.28;;;;;;;2.59;100.00;100686.78;838827;23;1341;-86
2022/01/06 01:15:58;;;;;;;14.95;4.18;;;;;;;2.59;100.00;100683.31;838392;23;1346;-86
2022/01/06 01:16:25;;;;;;;15.75;4.35;;;;;;;2.60;100.00;100731.53;836374;23;4245;-87
2022/01/06 01:17:03;;;;;;;14.75;4.32;;;;;;;2.61;100.00;100699.72;829863;23;912;-86
2022/01/06 01:17:26;;;;;;;14.35;4.40;;;;;;;2.58;100.00;100690.19;833445;23;1121;-86
2022/01/06 01:17:51;;;;;;;14.38;4.40;;;;;;;2.51;100.00;100686.56;830573;23;1336;-86
2022/01/06 01:18:17;;;;;;;14.93;4.15;;;;;;;2.52;100.00;100698.63;835993;23;1035;-86
2022/01/06 01:18:44;;;;;;;13.75;4.15;;;;;;;2.61;100.00;100699.72;842679;23;1299;-86
2022/01/06 01:19:10;;;;;;;13.80;3.90;;;;;;;2.58;100.00;100707.41;838292;23;4279;-86
2022/01/06 01:19:31;;;;;;;14.18;4.00;;;;;;;2.57;100.00;100703.91;833101;23;883;-86
2022/01/06 01:19:52;;;;;;;11.93;4.00;;;;;;;2.55;100.00;100688.41;829769;23;1233;-86
2022/01/06 01:20:17;;;;;;;13.43;4.20;;;;;;;2.55;100.00;100690.13;833316;23;1113;-86
2022/01/06 01:20:41;;;;;;;13.93;4.18;;;;;;;2.57;100.00;100691.03;841932;23;1201;-86
2022/01/06 01:21:04;;;;;;;17.40;4.28;;;;;;;2.61;100.00;100705.75;842902;23;951;-86
2022/01/06 01:21:29;;;;;;;14.43;4.18;;;;;;;2.59;100.00;100725.50;833724;23;1212;-86
2022/01/06 01:21:53;;;;;;;15.18;4.20;;;;;;;2.63;100.00;100692.88;837374;23;1295;-86
2022/01/06 01:22:17;;;;;;;15.38;4.22;;;;;;;2.64;100.00;100713.59;829548;23;4208;-87
2022/01/06 01:22:46;;;;;;;14.68;4.55;;;;;;;2.61;100.00;100707.47;830154;23;1332;-88
2022/01/06 01:23:22;;;;;;;15.25;4.10;;;;;;;2.70;100.00;100689.66;838426;23;1327;-86
2022/01/06 01:23:43;;;;;;;16.75;4.50;;;;;;;2.68;100.00;100711.97;840320;23;927;-86
2022/01/06 01:24:06;;;;;;;14.70;4.40;;;;;;;2.66;100.00;100717.09;840708;23;1092;-86
2022/01/06 01:24:27;;;;;;;12.05;4.28;;;;;;;2.65;100.00;100697.28;836395;23;940;-86
2022/01/06 01:24:48;;;;;;;16.83;4.30;;;;;;;2.69;100.00;100691.38;833745;23;1216;-87
2022/01/06 01:25:12;;;;;;;14.35;4.50;;;;;;;2.78;100.00;100731.19;836652;23;4209;-86
2022/01/06 01:25:35;;;;;;;15.20;4.85;;;;;;;2.73;100.00;100688.03;841893;23;1209;-86
2022/01/06 01:25:56;;;;;;;14.93;4.78;;;;;;;2.75;100.00;100739.72;835313;23;1098;-86
2022/01/06 01:26:24;;;;;;;13.77;4.63;;;;;;;2.69;100.00;100693.09;838762;23;883;-86
2022/01/06 01:26:45;;;;;;;14.95;4.75;;;;;;;2.68;100.00;100692.19;833242;23;1415;-85
2022/01/06 01:27:07;;;;;;;15.23;5.05;;;;;;;2.70;100.00;100744.75;838830;23;1206;-86
2022/01/06 01:27:35;;;;;;;11.70;4.60;;;;;;;2.70;100.00;100699.97;838257;23;1296;-86
2022/01/06 01:27:57;;;;;;;14.13;4.60;;;;;;;2.67;100.00;100692.16;829364;23;1228;-86
2022/01/06 01:28:18;;;;;;;14.57;4.57;;;;;;;2.71;100.00;100714.63;836893;23;4252;-86
2022/01/06 01:28:45;;;;;;;14.35;4.45;;;;;;;2.70;100.00;100712.88;836504;23;1098;-86
2022/01/06 01:29:13;;;;;;;13.20;4.50;;;;;;;2.69;100.00;100696.53;842498;23;1219;-86
2022/01/06 01:29:40;;;;;;;13.23;4.55;;;;;;;2.66;100.00;100716.19;836628;23;876;-86
2022/01/06 01:30:08;;;;;;;15.07;4.68;;;;;;;2.65;100.00;100714.47;837876;23;1350;-87
2022/01/06 01:30:32;;;;;;;13.82;4.60;;;;;;;2.71;100.00;100705.19;836938;23;1497;-87
2022/01/06 01:31:22;;;;;;;13.35;4.70;;;;;;;2.72;100.00;100694.03;837998;23;1254;-86
2022/01/06 01:31:53;;;;;;;10.75;4.20;;;;;;;2.85;100.00;100692.69;835154;23;4678;-86
2022/01/06 01:32:14;;;;;;;13.18;4.32;;;;;;;2.88;100.00;100689.28;837425;23;1239;-87
2022/01/06 01:32:36;;;;;;;13.38;4.50;;;;;;;2.86;100.00;100704.72;837566;23;1172;-86
2022/01/06 01:32:59;;;;;;;13.60;4.70;;;;;;;2.77;100.00;100689.00;837080;23;1300;-87
2022/01/06 01:33:19;;;;;;;14.18;4.65;;;;;;;2.77;100.00;100719.09;841910;23;877;-87
2022/01/06 01:33:42;;;;;;;11.70;4.38;;;;;;;2.76;100.00;100717.38;838067;23;1255;-86
2022/01/06 01:34:09;;;;;;;16.35;4.88;;;;;;;2.71;100.00;100723.28;839431;23;776;-86
2022/01/06 01:34:29;;;;;;;15.55;5.00;;;;;;;2.70;100.00;100713.78;836103;23;4721;-87
2022/01/06 01:34:57;;;;;;;14.80;4.50;;;;;;;2.72;100.00;100686.28;840639;23;1154;-87
2022/01/06 01:35:17;;;;;;;16.05;4.65;;;;;;;2.70;100.00;100692.22;838125;23;1272;-87
2022/01/06 01:35:38;;;;;;;15.15;4.53;;;;;;;2.68;100.00;100705.09;839237;23;1237;-86
2022/01/06 01:35:59;;;;;;;13.38;4.43;;;;;;;2.66;100.00;100719.69;838462;23;1176;-86
2022/01/06 01:36:20;;;;;;;12.63;4.40;;;;;;;2.63;100.00;100731.59;845528;23;1200;-86
2022/01/06 01:36:43;;;;;;;13.73;4.65;;;;;;;2.64;100.00;100734.22;838172;23;1250;-87
2022/01/06 01:37:04;;;;;;;14.30;5.05;;;;;;;2.73;100.00;100726.75;832662;23;4207;-87
2022/01/06 01:37:24;;;;;;;14.20;5.20;;;;;;;2.73;100.00;100700.09;827664;23;1260;-87
2022/01/06 01:37:45;;;;;;;14.23;4.67;;;;;;;2.71;100.00;100725.84;833721;23;1124;-86
2022/01/06 01:38:05;;;;;;;15.68;5.00;;;;;;;2.68;100.00;100730.03;833730;23;1166;-86
2022/01/06 01:38:26;;;;;;;16.80;4.93;;;;;;;2.64;100.00;100718.75;839277;23;864;-86
2022/01/06 01:38:47;;;;;;;14.77;4.63;;;;;;;2.60;100.00;100753.03;834316;23;1193;-86
2022/01/06 01:39:10;;;;;;;14.45;4.85;;;;;;;2.59;100.00;100743.56;834070;23;1230;-86
2022/01/06 01:39:31;;;;;;;17.45;4.97;;;;;;;2.53;100.00;100735.63;841234;23;1254;-86
2022/01/06 01:39:52;;;;;;;17.63;4.78;;;;;;;2.52;100.00;100702.91;828657;23;1201;-87
2022/01/06 01:40:13;;;;;;;16.37;5.07;;;;;;;2.53;100.00;100720.16;836406;23;4204;-87
2022/01/06 01:40:33;;;;;;;16.10;4.88;;;;;;;2.60;100.00;100714.31;833644;23;1177;-87
2022/01/06 01:40:54;;;;;;;15.57;4.90;;;;;;;2.55;100.00;100734.84;835228;23;793;-87
2022/01/06 01:41:17;;;;;;;12.63;4.55;;;;;;;2.52;100.00;100731.28;834795;23;1079;-87
2022/01/06 01:41:40;;;;;;;13.75;4.93;;;;;;;2.52;100.00;100736.47;829199;23;1137;-86
2022/01/06 01:42:01;;;;;;;13.27;4.68;;;;;;;2.49;100.00;100729.53;835730;23;843;-87
2022/01/06 01:42:26;;;;;;;14.07;4.60;;;;;;;2.47;100.00;100704.50;834469;23;1191;-87
2022/01/06 01:42:46;;;;;;;14.13;4.40;;;;;;;2.44;100.00;100723.34;838280;23;1276;-86
2022/01/06 01:43:07;;;;;;;12.93;4.57;;;;;;;2.45;100.00;100735.44;840757;23;4210;-86
2022/01/06 01:43:27;;;;;;;14.50;4.57;;;;;;;2.44;100.00;100741.41;842310;23;1014;-87
2022/01/06 01:43:48;;;;;;;14.90;4.63;;;;;;;2.44;100.00;100736.25;844281;23;906;-86
2022/01/06 01:44:13;;;;;;;13.48;4.72;;;;;;;2.42;100.00;100732.72;841814;23;1288;-86
2022/01/06 01:44:34;;;;;;;13.55;4.90;;;;;;;2.37;100.00;100731.75;834161;23;1351;-86
2022/01/06 01:44:55;;;;;;;13.90;4.65;;;;;;;2.30;100.00;100740.09;830164;23;1139;-87
2022/01/06 01:45:16;;;;;;;14.33;4.50;;;;;;;2.36;100.00;100717.09;831660;23;885;-87
2022/01/06 01:45:46;;;;;;;14.73;4.60;;;;;;;2.36;100.00;100706.75;826641;23;1902;-87
2022/01/06 01:46:12;;;;;;;12.90;4.38;;;;;;;2.37;100.00;100721.41;833646;23;4273;-87
2022/01/06 01:46:42;;;;;;;13.90;4.60;;;;;;;2.42;100.00;100721.53;835179;23;1315;-86
2022/01/06 01:47:13;;;;;;;11.25;4.20;;;;;;;2.37;100.00;100724.88;830168;23;1284;-86
2022/01/06 01:47:40;;;;;;;14.10;4.88;;;;;;;2.36;100.00;100745.47;831923;23;825;-86
2022/01/06 01:48:06;;;;;;;14.73;4.80;;;;;;;2.36;100.00;100730.00;832744;23;883;-87
2022/01/06 01:48:33;;;;;;;13.02;4.50;;;;;;;2.36;100.00;100753.22;836520;23;1326;-87
2022/01/06 01:49:55;;;;;;;12.95;4.90;;;;;;;2.34;100.00;100750.59;825288;23;4897;-86
2022/01/06 01:50:18;;;;;;;15.73;4.75;;;;;;;2.44;100.00;100728.50;825907;23;1213;-87
2022/01/06 01:50:38;;;;;;;13.60;4.43;;;;;;;2.42;100.00;100735.31;824769;23;1401;-87
2022/01/06 01:50:59;;;;;;;12.33;4.47;;;;;;;2.43;100.00;100731.91;833221;23;1255;-86
2022/01/06 01:51:19;;;;;;;13.80;4.80;;;;;;;2.43;100.00;100718.16;834351;23;790;-86
2022/01/06 01:51:51;;;;;;;12.63;4.93;;;;;;;2.44;100.00;100720.75;830265;23;1102;-86
2022/01/06 01:52:12;;;;;;;14.45;4.80;;;;;;;2.44;100.00;100722.44;833488;23;4198;-86
2022/01/06 01:52:32;;;;;;;12.90;4.40;;;;;;;2.42;100.00;100731.88;832951;23;1305;-87
2022/01/06 01:52:57;;;;;;;13.02;4.15;;;;;;;2.37;100.00;100714.53;833425;23;1261;-86
2022/01/06 01:53:17;;;;;;;16.58;4.60;;;;;;;2.36;100.00;100728.28;837238;23;1283;-87
2022/01/06 01:53:40;;;;;;;14.73;4.60;;;;;;;2.38;100.00;100716.31;841147;23;1388;-86
2022/01/06 01:54:01;;;;;;;13.13;4.32;;;;;;;2.48;100.00;100747.50;830833;23;1309;-86
2022/01/06 01:54:22;;;;;;;14.52;4.15;;;;;;;2.46;100.00;100731.13;830646;23;1237;-86
2022/01/06 01:54:45;;;;;;;12.63;4.15;;;;;;;2.46;100.00;100754.34;829682;23;1155;-87
2022/01/06 01:55:06;;;;;;;15.50;4.65;;;;;;;2.34;100.00;100753.16;823654;23;4299;-86
2022/01/06 01:55:35;;;;;;;14.50;4.70;;;;;;;2.34;100.00;100763.47;829162;23;1288;-86
2022/01/06 01:56:09;;;;;;;18.75;4.70;;;;;;;2.32;100.00;100747.06;838054;23;974;-86
2022/01/06 01:56:30;;;;;;;12.43;4.20;;;;;;;2.32;100.00;100748.78;837135;23;1309;-86
2022/01/06 01:56:51;;;;;;;14.43;4.22;;;;;;;2.31;100.00;100722.13;842408;23;1304;-86
2022/01/06 01:57:15;;;;;;;15.65;4.30;;;;;;;2.29;100.00;100766.75;837909;23;1316;-86
2022/01/06 01:57:36;;;;;;;15.57;4.20;;;;;;;2.25;100.00;100719.34;833619;23;1296;-87
2022/01/06 01:58:02;;;;;;;16.00;4.80;;;;;;;2.21;100.00;100745.88;829541;23;1335;-86
2022/01/06 01:58:25;;;;;;;13.27;4.30;;;;;;;2.21;100.00;100745.88;829028;23;4819;-87
2022/01/06 01:58:46;;;;;;;12.90;4.55;;;;;;;2.23;100.00;100736.50;833390;23;1232;-87
2022/01/06 01:59:07;;;;;;;14.02;4.40;;;;;;;2.26;100.00;100761.47;838421;23;1211;-86